<?xml version="1.0" encoding="UTF-8" standalone="no" ?>
<gpx xmlns="http://www.topografix.com/GPX/1/1" xmlns:xsi="http://www.w3.org/2001/XMLSchema-instance" xsi:schemaLocation="http://www.topografix.com/GPX/1/1 http://www.topografix.com/GPX/1/1/gpx.xsd" version="1.1" creator="VisuGPX - https://www.visugpx.com">
  <metadata>
    <name>01: Le pre Eternel</name>
    <desc><![CDATA[01: Le pre Eternel]]></desc>
  </metadata>
  <wpt lat="43.83631" lon="3.12279">
    <ele>520</ele>
    <name><![CDATA[Accueil PdC Centre]]></name>
  </wpt>
  <wpt lat="43.83565" lon="3.12242">
    <ele>530.1</ele>
    <name><![CDATA[PCB]]></name>
  </wpt>
  <wpt lat="43.8336" lon="3.12054">
    <ele>555</ele>
    <name><![CDATA[RMA]]></name>
  </wpt>
  <wpt lat="43.83443" lon="3.12248">
    <ele>580</ele>
    <name><![CDATA[MTM]]></name>
  </wpt>
  <wpt lat="43.83147" lon="3.12582">
    <ele>605</ele>
    <name><![CDATA[STA]]></name>
  </wpt>
  <wpt lat="43.8311" lon="3.12622">
    <ele>605</ele>
    <name><![CDATA[STB]]></name>
  </wpt>
  <wpt lat="43.83112" lon="3.1253">
    <ele>630</ele>
    <name><![CDATA[STC]]></name>
  </wpt>
  <wpt lat="43.83143" lon="3.1247">
    <ele>644.9</ele>
    <name><![CDATA[MTC]]></name>
  </wpt>
  <wpt lat="43.83214" lon="3.12269">
    <ele>655</ele>
    <name><![CDATA[MTB]]></name>
  </wpt>
  <trk>
    <name><![CDATA[RoTr 01 PdC]]></name>
    <trkseg>
      <trkpt lat="43.83564" lon="3.12242">
        <ele>531</ele>
        <time>2010-01-01T00:00:00Z</time>
      </trkpt>
      <trkpt lat="43.83551" lon="3.12223">
        <ele>535</ele>
        <time>2010-01-01T00:00:39Z</time>
      </trkpt>
      <trkpt lat="43.83535" lon="3.12201">
        <ele>539</ele>
        <time>2010-01-01T00:01:27Z</time>
      </trkpt>
      <trkpt lat="43.83516" lon="3.12172">
        <ele>541</ele>
        <time>2010-01-01T00:02:26Z</time>
      </trkpt>
      <trkpt lat="43.83501" lon="3.12144">
        <ele>541</ele>
        <time>2010-01-01T00:03:20Z</time>
      </trkpt>
      <trkpt lat="43.83477" lon="3.12116">
        <ele>546</ele>
        <time>2010-01-01T00:04:26Z</time>
      </trkpt>
      <trkpt lat="43.8345" lon="3.12096">
        <ele>548</ele>
        <time>2010-01-01T00:05:30Z</time>
      </trkpt>
      <trkpt lat="43.83416" lon="3.12078">
        <ele>551</ele>
        <time>2010-01-01T00:06:47Z</time>
      </trkpt>
      <trkpt lat="43.83388" lon="3.12066">
        <ele>557</ele>
        <time>2010-01-01T00:07:49Z</time>
      </trkpt>
      <trkpt lat="43.83362" lon="3.12051">
        <ele>561</ele>
        <time>2010-01-01T00:08:47Z</time>
      </trkpt>
      <trkpt lat="43.83363" lon="3.12051">
        <ele>561</ele>
        <time>2010-01-01T00:08:48Z</time>
      </trkpt>
      <trkpt lat="43.834" lon="3.12092">
        <ele>557</ele>
        <time>2010-01-01T00:10:29Z</time>
      </trkpt>
      <trkpt lat="43.83429" lon="3.12127">
        <ele>559</ele>
        <time>2010-01-01T00:11:50Z</time>
      </trkpt>
      <trkpt lat="43.83444" lon="3.12174">
        <ele>565</ele>
        <time>2010-01-01T00:13:07Z</time>
      </trkpt>
      <trkpt lat="43.8345" lon="3.12244">
        <ele>575</ele>
        <time>2010-01-01T00:14:54Z</time>
      </trkpt>
      <trkpt lat="43.83449" lon="3.12245">
        <ele>575</ele>
        <time>2010-01-01T00:14:57Z</time>
      </trkpt>
      <trkpt lat="43.83433" lon="3.12258">
        <ele>582</ele>
        <time>2010-01-01T00:15:35Z</time>
      </trkpt>
      <trkpt lat="43.83389" lon="3.12276">
        <ele>597</ele>
        <time>2010-01-01T00:17:13Z</time>
      </trkpt>
      <trkpt lat="43.83298" lon="3.12384">
        <ele>614</ele>
        <time>2010-01-01T00:21:24Z</time>
      </trkpt>
      <trkpt lat="43.83259" lon="3.12431">
        <ele>619</ele>
        <time>2010-01-01T00:23:14Z</time>
      </trkpt>
      <trkpt lat="43.83232" lon="3.12477">
        <ele>617</ele>
        <time>2010-01-01T00:24:44Z</time>
      </trkpt>
      <trkpt lat="43.83214" lon="3.12516">
        <ele>612</ele>
        <time>2010-01-01T00:25:55Z</time>
      </trkpt>
      <trkpt lat="43.83148" lon="3.12582">
        <ele>607</ele>
        <time>2010-01-01T00:28:45Z</time>
      </trkpt>
      <trkpt lat="43.83147" lon="3.12583">
        <ele>607</ele>
        <time>2010-01-01T00:28:48Z</time>
      </trkpt>
      <trkpt lat="43.83093" lon="3.12624">
        <ele>594</ele>
        <time>2010-01-01T00:30:58Z</time>
      </trkpt>
      <trkpt lat="43.83093" lon="3.12623">
        <ele>594</ele>
        <time>2010-01-01T00:30:59Z</time>
      </trkpt>
      <trkpt lat="43.83091" lon="3.12616">
        <ele>596</ele>
        <time>2010-01-01T00:31:11Z</time>
      </trkpt>
      <trkpt lat="43.83105" lon="3.12583">
        <ele>604</ele>
        <time>2010-01-01T00:32:09Z</time>
      </trkpt>
      <trkpt lat="43.83112" lon="3.1256">
        <ele>609</ele>
        <time>2010-01-01T00:32:47Z</time>
      </trkpt>
      <trkpt lat="43.83108" lon="3.12544">
        <ele>612</ele>
        <time>2010-01-01T00:33:12Z</time>
      </trkpt>
      <trkpt lat="43.8311" lon="3.12527">
        <ele>616</ele>
        <time>2010-01-01T00:33:38Z</time>
      </trkpt>
      <trkpt lat="43.8311" lon="3.12525">
        <ele>616</ele>
        <time>2010-01-01T00:33:42Z</time>
      </trkpt>
      <trkpt lat="43.83111" lon="3.12512">
        <ele>619</ele>
        <time>2010-01-01T00:34:02Z</time>
      </trkpt>
      <trkpt lat="43.83133" lon="3.12498">
        <ele>625</ele>
        <time>2010-01-01T00:34:53Z</time>
      </trkpt>
      <trkpt lat="43.83143" lon="3.1247">
        <ele>633</ele>
        <time>2010-01-01T00:35:41Z</time>
      </trkpt>
      <trkpt lat="43.83145" lon="3.12466">
        <ele>634</ele>
        <time>2010-01-01T00:35:47Z</time>
      </trkpt>
      <trkpt lat="43.83175" lon="3.12416">
        <ele>647</ele>
        <time>2010-01-01T00:37:26Z</time>
      </trkpt>
      <trkpt lat="43.83191" lon="3.12377">
        <ele>650</ele>
        <time>2010-01-01T00:38:35Z</time>
      </trkpt>
      <trkpt lat="43.83214" lon="3.12302">
        <ele>652</ele>
        <time>2010-01-01T00:40:39Z</time>
      </trkpt>
      <trkpt lat="43.83215" lon="3.12282">
        <ele>652</ele>
        <time>2010-01-01T00:41:09Z</time>
      </trkpt>
      <trkpt lat="43.83213" lon="3.12268">
        <ele>653</ele>
        <time>2010-01-01T00:41:31Z</time>
      </trkpt>
      <trkpt lat="43.83214" lon="3.12265">
        <ele>652</ele>
        <time>2010-01-01T00:41:35Z</time>
      </trkpt>
      <trkpt lat="43.83254" lon="3.12247">
        <ele>641</ele>
        <time>2010-01-01T00:43:04Z</time>
      </trkpt>
      <trkpt lat="43.83296" lon="3.12217">
        <ele>624</ele>
        <time>2010-01-01T00:44:43Z</time>
      </trkpt>
      <trkpt lat="43.83322" lon="3.12208">
        <ele>615</ele>
        <time>2010-01-01T00:45:40Z</time>
      </trkpt>
      <trkpt lat="43.83346" lon="3.12216">
        <ele>608</ele>
        <time>2010-01-01T00:46:31Z</time>
      </trkpt>
      <trkpt lat="43.83358" lon="3.12211">
        <ele>603</ele>
        <time>2010-01-01T00:46:58Z</time>
      </trkpt>
      <trkpt lat="43.83374" lon="3.12217">
        <ele>599</ele>
        <time>2010-01-01T00:47:32Z</time>
      </trkpt>
      <trkpt lat="43.83411" lon="3.12209">
        <ele>584</ele>
        <time>2010-01-01T00:48:51Z</time>
      </trkpt>
      <trkpt lat="43.83448" lon="3.12243">
        <ele>575</ele>
        <time>2010-01-01T00:50:25Z</time>
      </trkpt>
      <trkpt lat="43.8345" lon="3.12243">
        <ele>575</ele>
        <time>2010-01-01T00:50:29Z</time>
      </trkpt>
      <trkpt lat="43.83444" lon="3.12173">
        <ele>565</ele>
        <time>2010-01-01T00:52:17Z</time>
      </trkpt>
      <trkpt lat="43.83429" lon="3.12127">
        <ele>559</ele>
        <time>2010-01-01T00:53:33Z</time>
      </trkpt>
      <trkpt lat="43.834" lon="3.12091">
        <ele>557</ele>
        <time>2010-01-01T00:54:56Z</time>
      </trkpt>
      <trkpt lat="43.83362" lon="3.12051">
        <ele>561</ele>
        <time>2010-01-01T00:56:36Z</time>
      </trkpt>
      <trkpt lat="43.83362" lon="3.12051">
        <ele>561</ele>
        <time>2010-01-01T00:56:36Z</time>
      </trkpt>
      <trkpt lat="43.83388" lon="3.12066">
        <ele>557</ele>
        <time>2010-01-01T00:57:36Z</time>
      </trkpt>
      <trkpt lat="43.83415" lon="3.12077">
        <ele>551</ele>
        <time>2010-01-01T00:58:34Z</time>
      </trkpt>
      <trkpt lat="43.83451" lon="3.12097">
        <ele>548</ele>
        <time>2010-01-01T00:59:56Z</time>
      </trkpt>
      <trkpt lat="43.83477" lon="3.12116">
        <ele>546</ele>
        <time>2010-01-01T01:00:58Z</time>
      </trkpt>
      <trkpt lat="43.83501" lon="3.12144">
        <ele>541</ele>
        <time>2010-01-01T01:02:04Z</time>
      </trkpt>
      <trkpt lat="43.83517" lon="3.12172">
        <ele>541</ele>
        <time>2010-01-01T01:02:58Z</time>
      </trkpt>
      <trkpt lat="43.83534" lon="3.12201">
        <ele>539</ele>
        <time>2010-01-01T01:03:56Z</time>
      </trkpt>
      <trkpt lat="43.83564" lon="3.12241">
        <ele>531</ele>
        <time>2010-01-01T01:05:22Z</time>
      </trkpt>
    </trkseg>
  </trk>
</gpx>